Time;durP1;ratioP1;P1;durP2;ratioP2;P2;SDS_P1;SDS_P2;PMS_P1;PMS_P2;Temp;Humidity;BMP_temperature;BMP_pressure;BME280_temperature;BME280_humidity;BME280_pressure;Samples;Min_cycle;Max_cycle;Signal;HPM_P1;HPM_P2
2023/11/03 00:02:12;;;;;;;30.88;15.40;;;;;;;9.38;100.00;96556.28;5052204;28;20024;-73
2023/11/03 00:04:38;;;;;;;24.30;13.25;;;;;;;9.38;100.00;96556.28;5068361;28;20086;-74
2023/11/03 00:07:04;;;;;;;24.40;13.18;;;;;;;9.40;100.00;96549.00;5052465;28;20029;-74
2023/11/03 00:09:33;;;;;;;31.25;14.43;;;;;;;9.46;100.00;96551.22;5052088;28;20045;-74
2023/11/03 00:12:03;;;;;;;27.50;13.77;;;;;;;9.50;100.00;96560.72;5035661;28;20032;-73
2023/11/03 00:14:35;;;;;;;26.60;13.57;;;;;;;9.56;100.00;96565.59;5035431;28;20094;-75
2023/11/03 00:17:01;;;;;;;25.73;14.25;;;;;;;9.63;100.00;96575.69;5035576;28;20028;-74
2023/11/03 00:19:30;;;;;;;26.38;14.38;;;;;;;9.67;100.00;96569.19;5051999;28;20116;-74
2023/11/03 00:21:56;;;;;;;26.55;13.57;;;;;;;9.69;100.00;96558.41;5066913;28;20131;-75
2023/11/03 00:24:23;;;;;;;29.27;13.40;;;;;;;9.71;100.00;96548.44;5072274;28;20041;-74
2023/11/03 00:26:49;;;;;;;26.42;12.90;;;;;;;9.72;100.00;96536.81;5072864;28;20137;-74
2023/11/03 00:29:15;;;;;;;31.02;12.80;;;;;;;9.77;100.00;96537.31;5073098;28;20136;-74
2023/11/03 00:31:45;;;;;;;28.05;12.57;;;;;;;9.67;100.00;96546.97;5071846;28;20025;-74
2023/11/03 00:34:13;;;;;;;22.02;12.05;;;;;;;9.58;100.00;96536.97;5055254;28;20024;-74
2023/11/03 00:36:39;;;;;;;21.95;12.98;;;;;;;9.56;100.00;96528.22;5072072;28;20085;-75
2023/11/03 00:39:07;;;;;;;24.83;11.82;;;;;;;9.63;100.00;96532.13;5071692;28;20034;-74
2023/11/03 00:41:33;;;;;;;28.20;12.38;;;;;;;9.72;100.00;96545.66;5068872;28;20040;-74
2023/11/03 00:43:58;;;;;;;24.30;12.30;;;;;;;9.85;100.00;96550.06;5051524;28;20037;-74
2023/11/03 00:46:24;;;;;;;24.40;12.77;;;;;;;9.91;100.00;96563.81;5052710;28;20119;-73
2023/11/03 00:48:49;;;;;;;24.17;12.60;;;;;;;9.88;100.00;96565.84;5071600;28;20468;-74
2023/11/03 00:51:15;;;;;;;27.67;12.30;;;;;;;9.99;100.00;96564.13;5072810;28;20029;-74
2023/11/03 00:53:40;;;;;;;25.00;12.23;;;;;;;9.99;100.00;96563.25;5071411;28;20384;-74
2023/11/03 00:56:06;;;;;;;22.95;12.73;;;;;;;9.96;100.00;96564.34;5071119;28;20035;-74
2023/11/03 00:58:35;;;;;;;28.20;12.60;;;;;;;9.99;100.00;96568.59;5071370;28;20495;-74
2023/11/03 01:01:03;;;;;;;29.13;13.75;;;;;;;9.99;100.00;96563.25;5054672;28;20028;-75
2023/11/03 01:03:28;;;;;;;27.20;12.80;;;;;;;9.97;100.00;96562.50;5054593;28;20125;-75
2023/11/03 01:05:54;;;;;;;25.25;12.40;;;;;;;9.95;100.00;96554.63;5049468;28;20112;-74
2023/11/03 01:08:20;;;;;;;31.95;15.15;;;;;;;9.94;100.00;96544.88;5034448;28;20404;-74
2023/11/03 01:10:47;;;;;;;31.50;14.70;;;;;;;9.90;100.00;96538.09;5034512;28;20034;-75
2023/11/03 01:13:13;;;;;;;34.97;14.23;;;;;;;9.94;100.00;96555.56;5052144;28;20392;-75
2023/11/03 01:15:39;;;;;;;28.77;14.68;;;;;;;9.93;100.00;96550.38;5052288;28;20031;-74
2023/11/03 01:18:06;;;;;;;28.83;14.38;;;;;;;9.95;100.00;96562.63;5034073;28;20531;-74
2023/11/03 01:20:34;;;;;;;25.65;13.75;;;;;;;9.97;100.00;96560.69;5052175;28;20425;-75
2023/11/03 01:23:00;;;;;;;38.00;14.02;;;;;;;10.00;100.00;96556.94;5051717;28;20071;-75
2023/11/03 01:25:28;;;;;;;37.95;14.38;;;;;;;10.06;100.00;96565.34;5050770;28;20060;-74
2023/11/03 01:27:55;;;;;;;36.88;14.52;;;;;;;10.11;100.00;96560.50;5050839;28;20111;-75
2023/11/03 01:30:20;;;;;;;33.63;14.55;;;;;;;10.16;100.00;96549.50;5055594;28;20032;-74
2023/11/03 01:32:52;;;;;;;33.08;14.23;;;;;;;10.15;100.00;96547.81;5047135;28;20048;-74
2023/11/03 01:35:24;;;;;;;29.90;13.45;;;;;;;10.39;100.00;96558.44;5034383;28;20029;-75
2023/11/03 01:37:51;;;;;;;31.58;14.98;;;;;;;11.06;100.00;96556.66;5050641;28;20063;-74
2023/11/03 01:40:17;;;;;;;25.08;13.38;;;;;;;11.82;100.00;96564.72;5050526;28;20579;-75
2023/11/03 01:42:43;;;;;;;25.70;12.68;;;;;;;12.53;100.00;96547.91;5050550;28;20059;-75
2023/11/03 01:45:10;;;;;;;27.98;12.20;;;;;;;12.91;100.00;96525.81;5053087;28;20057;-74
2023/11/03 01:47:36;;;;;;;21.85;11.45;;;;;;;13.23;100.00;96513.13;5069442;28;20028;-75
2023/11/03 01:50:02;;;;;;;18.85;9.70;;;;;;;13.61;100.00;96508.81;5033577;28;20408;-74
2023/11/03 01:52:28;;;;;;;20.08;10.55;;;;;;;13.99;100.00;96490.91;5051625;28;20021;-74
2023/11/03 01:54:54;;;;;;;23.48;10.52;;;;;;;14.23;100.00;96487.78;5053626;28;20025;-75
2023/11/03 01:57:20;;;;;;;22.52;11.02;;;;;;;14.36;100.00;96488.34;5070007;28;20811;-74
2023/11/03 01:59:50;;;;;;;13.90;6.97;;;;;;;14.53;100.00;96514.50;5053566;28;20046;-73
2023/11/03 02:02:16;;;;;;;21.42;9.25;;;;;;;14.65;100.00;96507.97;5069983;28;20047;-74
2023/11/03 02:04:42;;;;;;;21.50;10.75;;;;;;;14.79;100.00;96486.97;5053101;28;20020;-75
2023/11/03 02:07:07;;;;;;;16.95;9.70;;;;;;;14.85;100.00;96483.69;5050039;28;20024;-74
2023/11/03 02:09:33;;;;;;;24.83;11.45;;;;;;;14.77;100.00;96491.63;5051145;28;20021;-75
2023/11/03 02:11:59;;;;;;;22.67;10.98;;;;;;;14.79;100.00;96489.66;5033297;28;20032;-75
2023/11/03 02:14:25;;;;;;;25.58;11.85;;;;;;;14.76;100.00;96476.50;5051238;28;20456;-75
2023/11/03 02:16:50;;;;;;;24.17;11.60;;;;;;;14.77;100.00;96470.09;5037328;28;20025;-74
2023/11/03 02:19:16;;;;;;;24.02;11.63;;;;;;;14.77;100.00;96454.78;5050909;28;20043;-75
2023/11/03 02:21:43;;;;;;;29.25;12.00;;;;;;;14.71;100.00;96435.69;5032953;28;20048;-75
2023/11/03 02:24:09;;;;;;;23.27;11.90;;;;;;;14.69;100.00;96459.22;5054100;28;20054;-75
2023/11/03 02:26:35;;;;;;;20.23;11.75;;;;;;;14.83;100.00;96439.88;5036004;28;20106;-75
2023/11/03 02:29:04;;;;;;;23.35;12.20;;;;;;;14.90;100.00;96422.16;5050949;28;20056;-75
2023/11/03 02:31:31;;;;;;;21.08;11.52;;;;;;;14.87;100.00;96419.75;5035776;28;20028;-75
2023/11/03 02:33:57;;;;;;;25.55;10.50;;;;;;;14.96;100.00;96398.19;5066874;28;20548;-74
2023/11/03 02:36:23;;;;;;;18.45;10.20;;;;;;;15.05;100.00;96401.81;5067939;28;20111;-75
2023/11/03 02:38:50;;;;;;;21.02;10.00;;;;;;;15.13;100.00;96393.84;5051622;28;20408;-74
2023/11/03 02:41:15;;;;;;;20.27;10.10;;;;;;;15.17;100.00;96395.22;5049323;28;20082;-75
2023/11/03 02:43:41;;;;;;;21.85;9.68;;;;;;;15.12;100.00;96384.06;5032689;28;20025;-75
2023/11/03 02:46:07;;;;;;;23.02;10.70;;;;;;;15.10;100.00;96394.13;5049507;28;20036;-75
2023/11/03 02:48:33;;;;;;;22.77;10.75;;;;;;;15.07;100.00;96384.50;5056323;28;20028;-73
2023/11/03 02:50:59;;;;;;;21.95;11.07;;;;;;;15.09;100.00;96395.13;5062883;28;20476;-74
2023/11/03 02:53:25;;;;;;;19.30;10.18;;;;;;;15.18;100.00;96380.75;5050949;28;20032;-74
2023/11/03 02:55:51;;;;;;;17.88;9.20;;;;;;;15.16;100.00;96383.56;5063850;28;20111;-73
2023/11/03 02:58:16;;;;;;;17.65;9.23;;;;;;;15.06;100.00;96390.03;5049043;28;20040;-74
2023/11/03 03:01:00;;;;;;;20.67;9.25;;;;;;;14.96;100.00;96391.94;5049166;28;20400;-75
2023/11/03 03:03:26;;;;;;;21.45;9.77;;;;;;;14.89;100.00;96382.78;5048807;28;20033;-73
2023/11/03 03:05:52;;;;;;;23.38;10.15;;;;;;;14.41;100.00;96381.16;5054404;28;20503;-74
2023/11/03 03:08:17;;;;;;;21.15;10.05;;;;;;;14.36;100.00;96394.19;5052265;28;20024;-74
2023/11/03 03:10:43;;;;;;;21.08;9.70;;;;;;;14.10;100.00;96393.09;5068847;28;20020;-73
2023/11/03 03:13:08;;;;;;;24.00;10.32;;;;;;;13.98;100.00;96383.50;5064556;28;20090;-74
2023/11/03 03:15:34;;;;;;;21.67;9.88;;;;;;;13.96;100.00;96380.97;5049903;28;20086;-73
2023/11/03 03:17:59;;;;;;;23.13;9.63;;;;;;;13.90;100.00;96367.25;5049040;28;20029;-74
2023/11/03 03:20:25;;;;;;;25.30;10.10;;;;;;;13.77;100.00;96356.78;5058365;28;20085;-74
2023/11/03 03:22:51;;;;;;;17.98;10.82;;;;;;;13.77;100.00;96337.97;5051974;28;20040;-75
2023/11/03 03:25:18;;;;;;;15.18;8.57;;;;;;;13.99;100.00;96336.81;5052164;28;20549;-74
2023/11/03 03:27:44;;;;;;;16.33;8.13;;;;;;;14.25;100.00;96335.16;5102422;28;20074;-74
2023/11/03 03:30:10;;;;;;;17.73;8.93;;;;;;;14.28;100.00;96352.84;5064638;28;20056;-74
2023/11/03 03:32:36;;;;;;;16.30;9.18;;;;;;;14.28;100.00;96350.13;5034000;28;20040;-74
2023/11/03 03:35:02;;;;;;;18.63;8.57;;;;;;;14.27;100.00;96346.63;5052061;28;20337;-74
2023/11/03 03:37:27;;;;;;;21.55;10.07;;;;;;;14.37;100.00;96351.97;5054575;28;20036;-74
2023/11/03 03:39:53;;;;;;;25.05;13.13;;;;;;;14.30;100.00;96346.34;5072887;28;20024;-74
2023/11/03 03:42:21;;;;;;;13.10;7.38;;;;;;;14.59;100.00;96368.59;5072866;28;20419;-73
2023/11/03 03:44:47;;;;;;;13.23;7.28;;;;;;;14.88;100.00;96346.06;5072473;28;20400;-73
2023/11/03 03:47:12;;;;;;;13.50;6.70;;;;;;;15.02;100.00;96332.09;5059109;28;20025;-74
2023/11/03 03:49:38;;;;;;;13.27;7.07;;;;;;;15.25;100.00;96332.50;5052356;28;20025;-74
2023/11/03 03:52:06;;;;;;;17.23;7.13;;;;;;;15.66;100.00;96324.66;5053943;28;20033;-75
2023/11/03 03:54:33;;;;;;;14.88;6.63;;;;;;;15.69;100.00;96331.56;5052636;28;20060;-75
2023/11/03 03:56:59;;;;;;;11.85;5.85;;;;;;;15.89;100.00;96321.47;5053835;28;20025;-74
2023/11/03 03:59:24;;;;;;;11.63;5.90;;;;;;;16.10;100.00;96335.41;5052677;28;20086;-74
2023/11/03 04:01:50;;;;;;;16.58;5.72;;;;;;;16.16;100.00;96345.56;5053477;28;20033;-75
2023/11/03 04:04:15;;;;;;;13.80;6.78;;;;;;;16.11;100.00;96359.56;5053756;28;20477;-74
2023/11/03 04:06:44;;;;;;;12.18;6.95;;;;;;;16.04;100.00;96363.03;5069136;28;20036;-74
2023/11/03 04:09:10;;;;;;;13.45;7.60;;;;;;;16.00;100.00;96331.97;5072555;28;20051;-74
2023/11/03 04:11:36;;;;;;;11.50;6.40;;;;;;;15.94;100.00;96319.13;5055404;28;20067;-75
2023/11/03 04:14:02;;;;;;;10.00;4.97;;;;;;;15.96;100.00;96317.97;5073325;28;20393;-74
2023/11/03 04:16:34;;;;;;;15.02;6.18;;;;;;;15.94;100.00;96308.31;5072358;28;20033;-75
2023/11/03 04:19:00;;;;;;;12.18;6.45;;;;;;;15.90;100.00;96293.50;5072047;28;20430;-74
2023/11/03 04:21:26;;;;;;;13.48;7.38;;;;;;;15.91;100.00;96296.00;5072033;28;20060;-74
2023/11/03 04:23:51;;;;;;;15.38;7.20;;;;;;;15.87;100.00;96296.50;5055266;28;20472;-75
2023/11/03 04:26:20;;;;;;;10.45;5.13;;;;;;;15.90;100.00;96297.03;5073338;28;20065;-74
2023/11/03 04:28:45;;;;;;;9.90;5.05;;;;;;;16.03;100.00;96300.13;5061598;28;20044;-75
2023/11/03 04:31:11;;;;;;;9.70;6.07;;;;;;;16.10;100.00;96297.66;5051847;28;20047;-74
2023/11/03 04:33:36;;;;;;;14.48;6.97;;;;;;;16.00;100.00;96303.16;5051887;28;20417;-74
2023/11/03 04:36:02;;;;;;;11.98;5.72;;;;;;;16.06;100.00;96302.50;5051980;28;20466;-75
2023/11/03 04:38:28;;;;;;;8.90;4.97;;;;;;;16.01;100.00;96312.09;5052071;28;20055;-75
2023/11/03 04:40:54;;;;;;;12.38;6.32;;;;;;;15.99;100.00;96311.41;5051263;28;20029;-74
2023/11/03 04:43:20;;;;;;;9.05;5.53;;;;;;;16.01;100.00;96314.78;5051704;28;20040;-74
2023/11/03 04:45:46;;;;;;;10.02;5.70;;;;;;;15.99;100.00;96316.81;5051475;28;20033;-75
2023/11/03 04:48:11;;;;;;;12.93;7.25;;;;;;;15.89;100.00;96322.31;5050871;28;20553;-74
2023/11/03 04:50:38;;;;;;;12.18;6.70;;;;;;;15.75;100.00;96330.13;5066475;28;20105;-74
2023/11/03 04:53:04;;;;;;;15.52;6.97;;;;;;;15.67;100.00;96326.34;5052970;28;20476;-75
2023/11/03 04:55:29;;;;;;;14.50;7.68;;;;;;;15.63;100.00;96348.38;5062600;28;20035;-74
2023/11/03 04:57:56;;;;;;;15.38;7.57;;;;;;;15.53;100.00;96313.44;5072664;28;20143;-72
2023/11/03 05:00:22;;;;;;;12.18;7.03;;;;;;;15.44;100.00;96322.41;5071295;28;20609;-72
2023/11/03 05:02:49;;;;;;;11.35;6.55;;;;;;;15.40;100.00;96328.25;5063273;28;20029;-73
2023/11/03 05:05:15;;;;;;;15.30;7.47;;;;;;;15.41;100.00;96306.53;5058981;28;20060;-72
2023/11/03 05:07:41;;;;;;;22.80;7.07;;;;;;;15.45;100.00;96302.53;5054578;28;21470;-72
2023/11/03 05:10:07;;;;;;;14.25;8.20;;;;;;;15.48;100.00;96291.47;5068642;28;20028;-72
2023/11/03 05:12:33;;;;;;;15.32;7.68;;;;;;;15.55;100.00;96287.16;5054257;28;20034;-73
2023/11/03 05:14:58;;;;;;;14.82;7.65;;;;;;;15.54;100.00;96266.59;5054541;28;20059;-72
2023/11/03 05:17:24;;;;;;;10.50;6.78;;;;;;;15.52;100.00;96255.13;5054202;28;20042;-76
2023/11/03 05:19:51;;;;;;;13.80;7.28;;;;;;;15.70;100.00;96257.78;5061091;28;20056;-74
2023/11/03 05:22:20;;;;;;;11.10;5.03;;;;;;;15.73;100.00;96258.31;5070984;28;20437;-72
2023/11/03 05:24:45;;;;;;;14.60;7.05;;;;;;;15.82;100.00;96236.78;5045526;28;20064;-74
2023/11/03 05:27:13;;;;;;;11.85;6.30;;;;;;;15.82;100.00;96242.19;5067398;28;20064;-73
2023/11/03 05:29:39;;;;;;;10.80;5.63;;;;;;;15.97;100.00;96227.09;5034070;28;20033;-73
2023/11/03 05:32:07;;;;;;;10.70;6.00;;;;;;;16.14;100.00;96226.19;5050515;28;20128;-74
2023/11/03 05:34:36;;;;;;;13.73;6.35;;;;;;;16.24;100.00;96210.75;5057021;28;20032;-73
2023/11/03 05:37:01;;;;;;;11.50;6.03;;;;;;;16.30;100.00;96220.03;5072198;28;20012;-74
2023/11/03 05:39:27;;;;;;;12.40;5.65;;;;;;;16.43;100.00;96206.91;5052391;28;20519;-74
2023/11/03 05:41:52;;;;;;;10.48;5.97;;;;;;;16.66;100.00;96224.22;5067745;28;20027;-73
2023/11/03 05:44:18;;;;;;;15.48;7.82;;;;;;;16.77;100.00;96234.69;5056756;28;20071;-74
2023/11/03 05:46:44;;;;;;;12.27;6.28;;;;;;;16.77;100.00;96216.66;5102843;28;20535;-73
2023/11/03 05:49:09;;;;;;;11.75;5.78;;;;;;;16.74;100.00;96227.78;5070289;28;20031;-74
2023/11/03 05:51:35;;;;;;;12.27;7.20;;;;;;;16.82;100.00;96204.50;5052953;28;20016;-74
2023/11/03 05:54:01;;;;;;;9.60;6.10;;;;;;;17.00;100.00;96210.63;5057349;28;20028;-73
2023/11/03 05:56:27;;;;;;;10.18;5.22;;;;;;;17.18;100.00;96201.34;5059632;28;20551;-73
2023/11/03 05:58:53;;;;;;;10.38;4.70;;;;;;;17.39;100.00;96206.22;5049832;28;20033;-74
2023/11/03 06:01:18;;;;;;;9.57;4.82;;;;;;;17.45;100.00;96213.66;5049312;28;20033;-74
2023/11/03 06:03:44;;;;;;;12.77;5.20;;;;;;;17.37;100.00;96181.22;5058628;28;20021;-74
2023/11/03 06:06:10;;;;;;;10.38;5.35;;;;;;;17.51;100.00;96175.13;5059514;28;20078;-74
2023/11/03 06:08:35;;;;;;;10.80;5.13;;;;;;;17.53;100.00;96169.56;5052837;28;20024;-74
2023/11/03 06:11:01;;;;;;;12.02;5.25;;;;;;;17.43;100.00;96163.47;5053151;28;20115;-74
2023/11/03 06:13:27;;;;;;;14.75;6.18;;;;;;;17.42;100.00;96176.16;5051232;28;20443;-74
2023/11/03 06:15:52;;;;;;;9.57;5.47;;;;;;;17.27;100.00;96180.56;5085610;28;20020;-72
2023/11/03 06:18:18;;;;;;;9.60;5.50;;;;;;;17.09;100.00;96194.25;5057051;28;20408;-72
2023/11/03 06:20:50;;;;;;;11.52;5.65;;;;;;;16.97;100.00;96201.00;5106428;27;20392;-74
2023/11/03 06:23:16;;;;;;;10.38;6.07;;;;;;;16.95;100.00;96194.06;5106934;28;20034;-73
2023/11/03 06:25:42;;;;;;;10.48;5.65;;;;;;;16.95;100.00;96212.97;5106358;28;20556;-74
2023/11/03 06:28:07;;;;;;;12.63;5.97;;;;;;;16.83;100.00;96206.22;5094638;28;20483;-75
2023/11/03 06:30:33;;;;;;;11.48;5.05;;;;;;;16.87;100.00;96189.50;5090801;28;20411;-74
2023/11/03 06:32:58;;;;;;;10.80;5.35;;;;;;;16.93;100.00;96152.84;5090226;28;20449;-74
2023/11/03 06:35:24;;;;;;;7.45;5.03;;;;;;;16.90;100.00;96162.16;5106498;28;20168;-74
2023/11/03 06:37:50;;;;;;;9.82;5.45;;;;;;;16.85;100.00;96179.88;5096859;28;20442;-74
2023/11/03 06:40:15;;;;;;;14.30;6.72;;;;;;;16.83;100.00;96182.72;5087392;28;20065;-76
2023/11/03 06:42:41;;;;;;;11.43;6.07;;;;;;;16.85;100.00;96204.19;5095876;28;20032;-74
2023/11/03 06:45:08;;;;;;;10.27;5.32;;;;;;;16.80;100.00;96186.59;5078451;28;20030;-73
2023/11/03 06:47:34;;;;;;;11.65;6.68;;;;;;;16.80;100.00;96193.84;5106008;28;20039;-74
2023/11/03 06:50:00;;;;;;;8.93;5.20;;;;;;;16.80;100.00;96173.09;5107607;28;20050;-74
2023/11/03 06:52:26;;;;;;;8.60;5.43;;;;;;;16.66;100.00;96181.88;5106238;28;20067;-74
2023/11/03 06:54:52;;;;;;;11.20;6.78;;;;;;;16.64;100.00;96183.88;5089303;28;20023;-73
2023/11/03 06:57:17;;;;;;;10.15;6.18;;;;;;;16.64;100.00;96186.56;5106365;28;20032;-74
2023/11/03 06:59:43;;;;;;;11.05;5.38;;;;;;;16.61;100.00;96199.59;5098758;28;20031;-74
2023/11/03 07:02:11;;;;;;;9.65;5.60;;;;;;;16.65;100.00;96196.38;5101783;28;20062;-73
2023/11/03 07:04:36;;;;;;;12.35;6.30;;;;;;;16.60;100.00;96176.28;5106005;28;20038;-74
2023/11/03 07:07:04;;;;;;;9.45;5.88;;;;;;;16.60;100.00;96171.75;5075655;28;20092;-74
2023/11/03 07:09:30;;;;;;;10.48;4.80;;;;;;;16.70;100.00;96164.31;5102913;28;20413;-75
2023/11/03 07:11:56;;;;;;;9.85;4.88;;;;;;;16.78;100.00;96166.19;5088976;28;20031;-74
2023/11/03 07:14:24;;;;;;;9.18;6.22;;;;;;;16.90;100.00;96188.31;5100472;28;20084;-74
2023/11/03 07:16:52;;;;;;;8.95;5.68;;;;;;;17.00;100.00;96178.19;5107051;28;20531;-74
2023/11/03 07:19:20;;;;;;;9.63;6.05;;;;;;;17.28;100.00;96183.09;5075172;28;20075;-75
2023/11/03 07:21:53;;;;;;;5.68;3.75;;;;;;;17.71;100.00;96181.91;5086608;28;20089;-74
2023/11/03 07:24:21;;;;;;;9.05;5.90;;;;;;;18.00;100.00;96177.72;5085610;28;20379;-74
2023/11/03 07:26:50;;;;;;;15.30;6.07;;;;;;;18.92;100.00;96156.97;5093799;28;20090;-75
2023/11/03 07:29:16;;;;;;;12.73;5.70;;;;;;;19.51;100.00;96142.78;5083496;28;20015;-74
2023/11/03 07:31:42;;;;;;;11.10;5.55;;;;;;;19.01;100.00;96167.78;5088171;28;20039;-74
2023/11/03 07:34:08;;;;;;;10.15;5.60;;;;;;;18.67;100.00;96143.78;5075416;28;20484;-75
2023/11/03 07:36:34;;;;;;;16.08;6.03;;;;;;;19.74;100.00;96133.56;5078257;28;20067;-74
2023/11/03 07:39:01;;;;;;;8.43;5.65;;;;;;;19.60;100.00;96141.66;5071718;28;20071;-74
2023/11/03 07:41:26;;;;;;;13.30;7.20;;;;;;;18.69;100.00;96148.00;5073282;28;20020;-75
2023/11/03 07:43:52;;;;;;;15.75;6.00;;;;;;;18.37;100.00;96159.81;5075520;28;20419;-74
2023/11/03 07:46:21;;;;;;;12.98;6.03;;;;;;;18.13;100.00;96156.38;5091200;28;20024;-75
2023/11/03 07:48:47;;;;;;;9.73;6.00;;;;;;;17.89;100.00;96162.75;5068124;28;20399;-75
2023/11/03 07:51:12;;;;;;;11.23;6.20;;;;;;;17.61;100.00;96154.19;5084316;28;20230;-75
2023/11/03 07:53:38;;;;;;;10.52;6.70;;;;;;;17.54;100.00;96150.44;5080425;28;20028;-75
2023/11/03 07:56:04;;;;;;;10.40;6.57;;;;;;;17.42;100.00;96140.16;5071233;28;20116;-74
2023/11/03 07:58:29;;;;;;;10.35;6.25;;;;;;;17.38;100.00;96146.94;5054679;28;20385;-73
2023/11/03 08:00:57;;;;;;;6.53;3.78;;;;;;;17.69;100.00;96183.91;5090249;28;20031;-73
2023/11/03 08:03:27;;;;;;;11.27;6.70;;;;;;;17.77;100.00;96194.72;5054939;28;20029;-74
2023/11/03 08:05:53;;;;;;;11.45;6.80;;;;;;;17.88;100.00;96197.06;5089603;28;20499;-73
2023/11/03 08:08:19;;;;;;;11.60;5.70;;;;;;;17.95;100.00;96178.28;5088756;28;20108;-74
2023/11/03 08:10:44;;;;;;;13.13;6.53;;;;;;;17.87;100.00;96162.91;5062577;28;20044;-73
2023/11/03 08:13:10;;;;;;;7.30;4.50;;;;;;;17.87;100.00;96160.19;5073987;28;20029;-73
2023/11/03 08:15:36;;;;;;;8.52;5.45;;;;;;;17.92;100.00;96166.94;5085574;28;20024;-73
2023/11/03 08:18:03;;;;;;;11.95;6.60;;;;;;;17.72;100.00;96167.34;5074345;28;20032;-75
2023/11/03 08:20:29;;;;;;;9.15;6.18;;;;;;;17.63;100.00;96160.25;5066794;28;20098;-74
2023/11/03 08:22:55;;;;;;;11.80;6.13;;;;;;;17.65;100.00;96169.06;5072096;28;20032;-75
2023/11/03 08:25:20;;;;;;;10.50;6.15;;;;;;;17.60;100.00;96171.41;5080437;28;20063;-75
2023/11/03 08:27:46;;;;;;;11.75;6.25;;;;;;;17.52;100.00;96163.31;5076703;28;20035;-74
2023/11/03 08:30:12;;;;;;;11.43;6.97;;;;;;;17.46;100.00;96158.59;5080083;28;20020;-73
2023/11/03 08:32:38;;;;;;;10.35;6.65;;;;;;;17.43;100.00;96169.75;5086287;28;20031;-74
2023/11/03 08:35:05;;;;;;;10.25;5.95;;;;;;;17.40;100.00;96164.69;5083731;28;20028;-74
2023/11/03 08:37:31;;;;;;;12.40;6.45;;;;;;;17.37;100.00;96165.00;5079165;28;20048;-75
2023/11/03 08:39:59;;;;;;;11.75;5.45;;;;;;;17.39;100.00;96168.38;5071821;28;20117;-75
2023/11/03 08:42:26;;;;;;;13.98;6.80;;;;;;;17.34;100.00;96170.75;5067764;28;20462;-74
2023/11/03 08:44:52;;;;;;;9.38;5.20;;;;;;;17.33;100.00;96158.25;5070231;28;20089;-74
2023/11/03 08:47:19;;;;;;;10.02;6.63;;;;;;;17.33;100.00;96180.72;5064712;28;20027;-75
2023/11/03 08:49:44;;;;;;;11.77;6.43;;;;;;;17.30;100.00;96189.19;5073324;28;20048;-74
2023/11/03 08:52:12;;;;;;;9.60;5.30;;;;;;;17.22;100.00;96180.22;5085430;28;20074;-74
2023/11/03 08:54:38;;;;;;;14.38;7.95;;;;;;;17.20;100.00;96172.28;5082164;28;20377;-75
2023/11/03 08:57:05;;;;;;;11.63;6.30;;;;;;;17.25;100.00;96182.59;5091489;28;20074;-75
2023/11/03 08:59:32;;;;;;;22.45;6.45;;;;;;;17.30;100.00;96172.09;5067940;28;20103;-74
2023/11/03 09:01:57;;;;;;;13.93;7.18;;;;;;;17.35;100.00;96177.84;5070991;28;20115;-74
2023/11/03 09:04:23;;;;;;;12.80;6.88;;;;;;;17.32;100.00;96175.47;5088895;28;20020;-73
2023/11/03 09:06:49;;;;;;;8.63;4.97;;;;;;;17.29;100.00;96194.72;5081528;28;20447;-74
2023/11/03 09:09:14;;;;;;;15.85;9.15;;;;;;;17.17;100.00;96183.44;5081043;28;20024;-74
2023/11/03 09:11:43;;;;;;;9.52;5.30;;;;;;;17.12;100.00;96166.03;5076240;28;20036;-74
2023/11/03 09:14:09;;;;;;;33.15;7.32;;;;;;;17.17;100.00;96178.03;5080919;28;20055;-74
2023/11/03 09:16:35;;;;;;;11.38;5.80;;;;;;;17.22;100.00;96183.78;5053385;28;20554;-74
2023/11/03 09:19:01;;;;;;;11.82;6.00;;;;;;;17.21;100.00;96200.16;5069383;28;20190;-74
2023/11/03 09:21:27;;;;;;;9.63;5.85;;;;;;;17.19;100.00;96189.53;5053113;28;20036;-75
2023/11/03 09:23:53;;;;;;;9.70;5.97;;;;;;;17.24;100.00;96195.25;5069653;28;20043;-73
2023/11/03 09:26:19;;;;;;;10.40;4.55;;;;;;;17.35;100.00;96194.91;5082681;28;20024;-74
2023/11/03 09:28:45;;;;;;;12.80;6.85;;;;;;;17.37;100.00;96216.38;5077943;28;20036;-74
2023/11/03 09:31:10;;;;;;;11.15;5.60;;;;;;;17.31;100.00;96198.13;5087940;28;20024;-74
2023/11/03 09:33:40;;;;;;;11.13;6.10;;;;;;;17.29;100.00;96197.44;5084245;28;20490;-74
2023/11/03 09:36:06;;;;;;;14.02;7.35;;;;;;;17.37;100.00;96192.03;5065025;28;20031;-74
2023/11/03 09:38:32;;;;;;;13.65;6.65;;;;;;;17.44;100.00;96193.06;5072671;28;20032;-74
2023/11/03 09:40:58;;;;;;;12.10;6.75;;;;;;;17.47;100.00;96167.53;5081779;28;20404;-74
2023/11/03 09:43:24;;;;;;;12.10;6.03;;;;;;;17.71;100.00;96151.31;5062267;28;20081;-74
2023/11/03 09:45:49;;;;;;;14.32;6.75;;;;;;;17.93;100.00;96144.31;5085978;28;20470;-74
2023/11/03 09:48:19;;;;;;;13.88;7.10;;;;;;;18.59;100.00;96141.97;5064512;28;20561;-74
2023/11/03 09:50:47;;;;;;;9.48;5.97;;;;;;;19.17;100.00;96127.81;5074100;28;20499;-74
2023/11/03 09:53:19;;;;;;;11.65;5.30;;;;;;;18.98;100.00;96120.16;5077672;28;20040;-73
2023/11/03 09:55:44;;;;;;;11.40;5.68;;;;;;;18.87;100.00;96131.44;5061152;28;20032;-73
2023/11/03 09:58:11;;;;;;;13.00;6.82;;;;;;;18.72;100.00;96131.38;5078296;28;20093;-73
2023/11/03 10:00:37;;;;;;;15.10;6.35;;;;;;;18.54;100.00;96144.38;5083800;28;20028;-74
2023/11/03 10:03:04;;;;;;;12.00;6.80;;;;;;;18.70;100.00;96133.41;5085533;28;20116;-74
2023/11/03 10:05:30;;;;;;;12.68;7.35;;;;;;;18.78;100.00;96136.09;5090562;28;20097;-75
2023/11/03 10:08:05;;;;;;;13.38;6.60;;;;;;;18.75;100.00;96125.59;5073917;28;20062;-74
2023/11/03 10:10:36;;;;;;;13.73;6.75;;;;;;;18.70;100.00;96113.63;5061831;28;20429;-73
2023/11/03 10:13:09;;;;;;;10.18;5.85;;;;;;;18.98;100.00;96103.91;5069236;28;20107;-74
2023/11/03 10:15:44;;;;;;;15.13;6.47;;;;;;;19.80;100.00;96093.97;5072850;28;20491;-75
2023/11/03 10:18:10;;;;;;;10.18;5.97;;;;;;;20.41;100.00;96087.28;5089061;28;20081;-74
2023/11/03 10:20:38;;;;;;;9.00;5.28;;;;;;;21.11;96.88;96071.06;5077082;28;20128;-75
2023/11/03 10:23:04;;;;;;;11.07;6.10;;;;;;;21.59;93.23;96058.47;5084163;28;20024;-75
2023/11/03 10:25:31;;;;;;;11.45;6.50;;;;;;;22.05;89.47;96075.09;5052151;28;20511;-75
2023/11/03 10:27:57;;;;;;;7.43;4.75;;;;;;;22.47;82.12;96072.13;5077081;28;20502;-75
2023/11/03 10:30:27;;;;;;;10.88;6.57;;;;;;;22.48;82.18;96057.47;5087123;28;20025;-75
2023/11/03 10:32:55;;;;;;;9.65;4.95;;;;;;;22.74;78.11;96051.25;5060161;28;20039;-73
2023/11/03 10:35:21;;;;;;;12.98;6.60;;;;;;;22.52;80.81;96057.88;5087826;28;20028;-75
2023/11/03 10:37:47;;;;;;;9.75;5.80;;;;;;;22.33;82.34;96059.50;5077398;28;20032;-74
2023/11/03 10:40:13;;;;;;;9.98;5.63;;;;;;;22.62;78.47;96039.22;5085654;28;20039;-75
2023/11/03 10:42:47;;;;;;;10.65;5.95;;;;;;;22.55;78.51;96035.66;5067284;28;20583;-74
2023/11/03 10:45:13;;;;;;;11.18;6.13;;;;;;;22.57;77.81;96028.13;5069012;28;20025;-74
2023/11/03 10:48:03;;;;;;;15.20;8.55;;;;;;;23.05;74.38;96010.56;5068720;28;20020;-74
2023/11/03 10:50:35;;;;;;;9.95;4.95;;;;;;;23.08;72.92;95992.94;5085290;28;20028;-73
2023/11/03 10:53:13;;;;;;;5.93;4.22;;;;;;;23.37;71.03;95991.66;5052386;28;20028;-74
2023/11/03 10:55:46;;;;;;;13.38;5.40;;;;;;;23.84;67.53;95974.97;5068599;28;20105;-74
2023/11/03 10:58:12;;;;;;;7.63;5.05;;;;;;;23.45;67.41;95981.38;5068882;28;20162;-74
2023/11/03 11:00:43;;;;;;;9.95;5.45;;;;;;;23.55;67.30;95983.69;5083787;28;20120;-74
2023/11/03 11:03:27;;;;;;;9.65;5.75;;;;;;;22.81;72.16;95986.66;5068589;28;20406;-74
2023/11/03 11:05:59;;;;;;;10.68;5.28;;;;;;;22.78;72.96;95997.97;5064093;28;20033;-75
2023/11/03 11:08:27;;;;;;;8.45;5.03;;;;;;;23.11;71.67;95976.16;5089909;28;20035;-74
2023/11/03 11:10:53;;;;;;;9.48;4.97;;;;;;;23.53;67.99;95963.97;5080768;28;20020;-74
2023/11/03 11:13:20;;;;;;;10.57;5.32;;;;;;;22.97;71.06;95969.88;5080665;28;20565;-75
2023/11/03 11:15:58;;;;;;;10.50;4.90;;;;;;;23.48;69.25;95961.84;5077107;28;20035;-75